Time;durP1;ratioP1;P1;durP2;ratioP2;P2;SDS_P1;SDS_P2;PMS_P1;PMS_P2;Temp;Humidity;BMP_temperature;BMP_pressure;BME280_temperature;BME280_humidity;BME280_pressure;Samples;Min_cycle;Max_cycle;Signal;HPM_P1;HPM_P2
2023/06/19 00:00:31;;;;;;;6.93;5.40;;;;;;;23.06;54.01;100574.59;3585457;39;20058;-67
2023/06/19 00:02:57;;;;;;;6.38;5.50;;;;;;;23.07;54.21;100581.78;3582863;39;20280;-66
2023/06/19 00:05:23;;;;;;;5.97;5.38;;;;;;;23.00;54.33;100586.31;3578492;39;20166;-67
2023/06/19 00:07:49;;;;;;;6.78;6.07;;;;;;;22.93;54.57;100587.03;3578370;39;20075;-67
2023/06/19 00:10:15;;;;;;;7.30;5.88;;;;;;;22.87;54.72;100587.72;3585845;39;20294;-66
2023/06/19 00:12:41;;;;;;;6.93;6.05;;;;;;;22.81;54.92;100602.13;3578612;39;20059;-67
2023/06/19 00:15:09;;;;;;;7.35;6.20;;;;;;;22.75;55.56;100594.63;3585380;39;20451;-66
2023/06/19 00:17:37;;;;;;;6.78;6.07;;;;;;;22.70;55.25;100599.78;3580509;39;20058;-68
2023/06/19 00:20:06;;;;;;;6.35;5.80;;;;;;;22.63;55.81;100607.03;3591107;39;20382;-68
2023/06/19 00:22:32;;;;;;;6.63;6.03;;;;;;;22.56;55.78;100604.16;3587898;39;20063;-67
2023/06/19 00:24:57;;;;;;;6.55;5.82;;;;;;;22.50;56.33;100615.81;3581714;40;20059;-67
2023/06/19 00:27:24;;;;;;;6.25;5.65;;;;;;;22.22;56.18;100583.38;3583533;40;20095;-68
2023/06/19 00:29:51;;;;;;;6.70;6.00;;;;;;;22.33;56.91;100612.28;3586687;39;20048;-68
2023/06/19 00:32:16;;;;;;;6.65;6.03;;;;;;;22.28;56.93;100620.19;3586285;39;20068;-68
2023/06/19 00:34:45;;;;;;;8.50;6.60;;;;;;;22.22;57.17;100620.88;3585164;39;20472;-68
2023/06/19 00:37:12;;;;;;;8.05;6.07;;;;;;;22.17;57.34;100626.00;3576360;39;20501;-67
2023/06/19 00:39:40;;;;;;;8.50;6.05;;;;;;;22.10;57.45;100638.66;3582848;39;20047;-67
2023/06/19 00:42:06;;;;;;;7.57;6.35;;;;;;;22.07;57.67;100625.34;3585283;39;20051;-67
2023/06/19 00:44:31;;;;;;;6.18;5.68;;;;;;;22.03;58.09;100633.03;3583024;39;20126;-67
2023/06/19 00:47:02;;;;;;;7.00;5.90;;;;;;;21.99;58.23;100638.00;3583483;39;20328;-68
2023/06/19 00:49:31;;;;;;;7.15;6.45;;;;;;;21.86;58.32;100615.81;3588425;39;20315;-67
2023/06/19 00:51:58;;;;;;;6.35;5.55;;;;;;;21.87;58.31;100636.66;3586531;39;20044;-66
2023/06/19 00:54:24;;;;;;;6.45;5.85;;;;;;;21.83;58.52;100640.78;3575567;39;20640;-66
2023/06/19 00:56:50;;;;;;;7.82;5.68;;;;;;;21.80;58.57;100641.13;3581340;39;20321;-66
2023/06/19 00:59:19;;;;;;;6.55;5.60;;;;;;;21.76;59.03;100651.56;3581276;39;20326;-66
2023/06/19 01:01:46;;;;;;;6.75;5.95;;;;;;;21.71;58.61;100643.00;3581617;39;20358;-67
2023/06/19 01:04:12;;;;;;;6.43;5.82;;;;;;;21.70;59.00;100651.41;3583943;39;20058;-67
2023/06/19 01:06:57;;;;;;;6.53;5.88;;;;;;;21.66;59.30;100641.81;3590985;39;20052;-67
2023/06/19 01:09:34;;;;;;;8.40;5.80;;;;;;;21.66;59.49;100652.75;3585062;39;20060;-66
2023/06/19 01:12:32;;;;;;;6.82;5.65;;;;;;;21.60;59.39;100653.44;3587429;39;20067;-66
2023/06/19 01:15:02;;;;;;;6.50;5.90;;;;;;;21.58;59.71;100656.34;3584739;39;20465;-65
2023/06/19 01:17:29;;;;;;;6.18;5.25;;;;;;;21.50;59.80;100651.75;3585303;39;20048;-66
2023/06/19 01:19:57;;;;;;;6.95;5.20;;;;;;;21.53;60.07;100659.59;3587489;39;20448;-66
2023/06/19 01:22:30;;;;;;;6.03;4.70;;;;;;;21.49;60.49;100647.28;3579303;39;20104;-66
2023/06/19 01:24:57;;;;;;;5.35;4.85;;;;;;;21.53;60.13;100659.59;3579467;39;20199;-65
2023/06/19 01:27:29;;;;;;;5.55;5.00;;;;;;;21.45;61.21;100656.00;3584498;39;20059;-65
2023/06/19 01:29:57;;;;;;;7.77;5.00;;;;;;;21.08;61.41;100611.66;3585580;39;20050;-67
2023/06/19 01:33:07;;;;;;;4.88;4.43;;;;;;;21.35;61.55;100668.97;3587754;39;20064;-66
2023/06/19 01:35:39;;;;;;;5.03;4.45;;;;;;;21.31;61.91;100660.22;3590114;39;20438;-67
2023/06/19 01:38:07;;;;;;;5.18;4.68;;;;;;;21.16;62.04;100640.06;3579612;39;20051;-65
2023/06/19 01:40:34;;;;;;;4.82;4.32;;;;;;;21.27;62.61;100664.31;3574880;39;20072;-65
2023/06/19 01:43:02;;;;;;;5.90;4.38;;;;;;;21.20;62.39;100660.56;3581402;39;20169;-66
2023/06/19 01:45:29;;;;;;;6.00;4.35;;;;;;;21.09;63.01;100646.19;3582190;39;20056;-66
2023/06/19 01:47:56;;;;;;;6.53;4.60;;;;;;;21.18;63.34;100668.06;3581492;39;20063;-66
2023/06/19 01:50:24;;;;;;;5.93;3.88;;;;;;;21.10;62.96;100672.50;3585416;39;20389;-66
2023/06/19 01:52:51;;;;;;;4.65;4.20;;;;;;;21.08;64.27;100682.72;3589193;39;20048;-65
2023/06/19 01:55:17;;;;;;;4.82;4.32;;;;;;;21.00;64.06;100674.53;3584393;39;20068;-66
2023/06/19 01:57:42;;;;;;;4.43;4.03;;;;;;;20.98;64.67;100673.81;3592473;39;20054;-67
2023/06/19 02:00:10;;;;;;;4.65;4.25;;;;;;;20.96;64.45;100689.50;3586172;39;20535;-67
2023/06/19 02:02:36;;;;;;;4.63;4.22;;;;;;;20.91;64.69;100683.72;3583737;39;20645;-65
2023/06/19 02:05:02;;;;;;;4.63;4.22;;;;;;;20.90;64.76;100690.22;3587719;39;20047;-66
2023/06/19 02:07:28;;;;;;;3.88;3.47;;;;;;;20.88;65.26;100685.91;3585127;39;20055;-66
2023/06/19 02:09:54;;;;;;;5.47;3.75;;;;;;;20.86;65.25;100699.72;3581918;39;20075;-66
2023/06/19 02:12:19;;;;;;;3.58;3.28;;;;;;;20.83;65.86;100689.13;3585774;39;20331;-66
2023/06/19 02:14:45;;;;;;;3.40;3.10;;;;;;;20.82;66.25;100701.09;3583682;40;20338;-64
2023/06/19 02:17:11;;;;;;;3.70;3.22;;;;;;;20.71;66.82;100685.88;3586339;39;20055;-66
2023/06/19 02:19:36;;;;;;;3.50;3.20;;;;;;;20.65;67.03;100678.31;3588909;39;20315;-66
2023/06/19 02:22:02;;;;;;;6.40;3.30;;;;;;;20.73;67.25;100699.34;3583535;39;20078;-67
2023/06/19 02:24:28;;;;;;;5.38;2.97;;;;;;;20.71;67.69;100701.38;3580076;39;20057;-67
2023/06/19 02:26:53;;;;;;;2.92;2.72;;;;;;;20.67;67.52;100700.84;3583085;39;20059;-67
2023/06/19 02:29:19;;;;;;;3.25;2.88;;;;;;;20.58;68.52;100691.78;3585018;39;20040;-66
2023/06/19 02:31:45;;;;;;;3.28;2.97;;;;;;;20.46;68.94;100676.66;3585572;39;20413;-66
2023/06/19 02:34:11;;;;;;;3.40;3.10;;;;;;;20.52;68.72;100688.81;3585099;39;20149;-66
2023/06/19 02:36:37;;;;;;;2.80;2.60;;;;;;;20.49;69.16;100690.00;3590540;39;20371;-66
2023/06/19 02:39:06;;;;;;;3.05;2.60;;;;;;;20.30;69.65;100665.66;3591111;39;20102;-66
2023/06/19 02:41:32;;;;;;;3.28;2.67;;;;;;;20.46;69.88;100693.03;3583536;39;20396;-67
2023/06/19 02:43:57;;;;;;;3.30;2.70;;;;;;;20.46;69.85;100698.50;3581541;39;20259;-66
2023/06/19 02:46:23;;;;;;;4.90;2.95;;;;;;;20.43;70.04;100693.38;3584906;39;20402;-67
2023/06/19 02:48:48;;;;;;;3.38;3.03;;;;;;;20.43;69.84;100697.97;3586167;39;20071;-66
2023/06/19 02:51:14;;;;;;;2.88;2.67;;;;;;;20.35;70.81;100691.44;3585786;39;20350;-66
2023/06/19 02:53:41;;;;;;;3.67;2.78;;;;;;;20.33;70.54;100692.59;3584276;39;20140;-64
2023/06/19 02:56:07;;;;;;;3.13;2.80;;;;;;;20.27;70.65;100696.00;3583371;39;20070;-63
2023/06/19 02:58:34;;;;;;;2.97;2.78;;;;;;;20.26;70.89;100710.66;3584334;39;20122;-65
2023/06/19 03:01:00;;;;;;;4.57;2.67;;;;;;;20.23;71.11;100710.97;3580845;39;20052;-65
2023/06/19 03:03:26;;;;;;;3.63;2.70;;;;;;;19.97;71.78;100665.44;3583104;39;20432;-65
2023/06/19 03:05:51;;;;;;;3.95;3.13;;;;;;;19.94;72.01;100669.31;3584765;39;20068;-65
2023/06/19 03:08:17;;;;;;;4.93;2.80;;;;;;;20.10;71.73;100709.53;3586231;39;20388;-66
2023/06/19 03:10:43;;;;;;;3.78;2.88;;;;;;;20.15;71.80;100719.97;3586575;39;20066;-65
2023/06/19 03:13:08;;;;;;;2.88;2.67;;;;;;;20.10;71.98;100712.25;3590106;39;20101;-65
2023/06/19 03:15:34;;;;;;;3.35;2.67;;;;;;;19.83;72.55;100680.50;3588932;39;20070;-66
2023/06/19 03:18:03;;;;;;;3.40;3.10;;;;;;;20.08;72.97;100727.09;3583306;39;20095;-65
2023/06/19 03:20:28;;;;;;;2.95;2.75;;;;;;;20.01;72.75;100726.84;3589153;39;20064;-66
2023/06/19 03:22:54;;;;;;;3.05;2.85;;;;;;;20.02;73.69;100730.44;3591477;39;20079;-65
2023/06/19 03:25:19;;;;;;;6.03;3.58;;;;;;;20.01;73.28;100734.19;3581133;39;20330;-67
2023/06/19 03:27:45;;;;;;;3.53;3.22;;;;;;;20.00;73.77;100724.28;3581856;39;20148;-69
2023/06/19 03:30:12;;;;;;;3.67;3.35;;;;;;;20.00;73.99;100733.31;3581706;39;20043;-66
2023/06/19 03:32:38;;;;;;;3.47;3.17;;;;;;;20.00;73.72;100725.13;3583773;39;20383;-68
2023/06/19 03:35:05;;;;;;;4.05;3.65;;;;;;;19.82;74.24;100699.75;3574035;39;20074;-65
2023/06/19 03:37:32;;;;;;;3.60;3.13;;;;;;;19.96;73.65;100729.22;3584960;39;20114;-66
2023/06/19 03:39:58;;;;;;;4.25;3.50;;;;;;;;;;3588267;39;20472;-66
2023/06/19 03:42:23;;;;;;;3.67;3.38;;;;;;;19.98;74.36;100743.56;3578255;40;20060;-67
2023/06/19 03:44:49;;;;;;;5.97;3.58;;;;;;;19.99;75.08;100739.81;3581731;39;20047;-66
2023/06/19 03:47:16;;;;;;;3.97;3.25;;;;;;;19.99;75.06;100748.00;3577909;39;20416;-66
2023/06/19 03:49:42;;;;;;;4.15;3.50;;;;;;;20.01;74.79;100759.59;3586142;39;20486;-67
2023/06/19 03:52:08;;;;;;;6.10;3.40;;;;;;;20.02;74.71;100761.31;3590847;39;20123;-68
2023/06/19 03:54:33;;;;;;;5.45;3.60;;;;;;;20.07;75.42;100764.41;3587846;39;20053;-67
2023/06/19 03:56:59;;;;;;;3.70;3.40;;;;;;;20.10;75.41;100774.16;3586538;39;20060;-67
2023/06/19 03:59:25;;;;;;;4.65;3.55;;;;;;;20.13;75.04;100762.94;3584506;39;20068;-66
2023/06/19 04:01:51;;;;;;;3.60;3.30;;;;;;;20.15;74.62;100767.22;3584237;39;20066;-65
2023/06/19 04:04:17;;;;;;;4.10;3.70;;;;;;;20.18;75.73;100772.38;3579689;39;21393;-66
2023/06/19 04:06:42;;;;;;;4.35;3.90;;;;;;;20.20;74.61;100768.59;3578150;39;20391;-66
2023/06/19 04:09:08;;;;;;;4.00;3.60;;;;;;;20.24;74.83;100772.75;3582702;39;20052;-65
2023/06/19 04:11:33;;;;;;;4.15;3.65;;;;;;;20.27;75.15;100777.91;3586718;39;21430;-65
2023/06/19 04:13:59;;;;;;;4.80;3.97;;;;;;;20.34;75.22;100781.69;3588112;39;20058;-66
2023/06/19 04:16:25;;;;;;;4.53;3.58;;;;;;;20.39;74.79;100784.78;3583236;39;20774;-66
2023/06/19 04:18:50;;;;;;;4.28;3.88;;;;;;;20.44;74.76;100787.06;3584187;39;20067;-66
2023/06/19 04:21:16;;;;;;;5.50;3.88;;;;;;;20.31;74.53;100765.63;3583710;39;20051;-65
2023/06/19 04:23:41;;;;;;;4.03;3.63;;;;;;;20.50;74.69;100792.72;3581788;40;20168;-64
2023/06/19 04:26:07;;;;;;;3.97;3.58;;;;;;;20.57;73.82;100792.97;3583181;39;20421;-65
2023/06/19 04:28:33;;;;;;;5.38;3.75;;;;;;;20.65;74.17;100798.50;3585563;39;20051;-66
2023/06/19 04:31:01;;;;;;;6.22;4.15;;;;;;;20.60;74.32;100798.97;3589802;39;20078;-64
2023/06/19 04:33:29;;;;;;;6.70;4.68;;;;;;;20.61;74.68;100810.75;3567238;40;20063;-65
2023/06/19 04:35:54;;;;;;;6.32;4.20;;;;;;;20.47;74.76;100793.06;3580317;39;20062;-66
2023/06/19 04:38:23;;;;;;;5.10;4.15;;;;;;;20.56;75.35;100813.13;3582544;39;20503;-65
2023/06/19 04:40:52;;;;;;;5.05;4.00;;;;;;;20.47;74.79;100803.97;3585568;39;20293;-66
2023/06/19 04:43:18;;;;;;;5.47;4.10;;;;;;;20.56;75.13;100813.13;3587289;39;20072;-65
2023/06/19 04:45:45;;;;;;;4.60;4.03;;;;;;;20.50;74.78;100803.66;3586049;39;20051;-66
2023/06/19 04:48:11;;;;;;;4.40;3.92;;;;;;;20.58;75.51;100819.25;3577522;39;20040;-67
2023/06/19 04:50:37;;;;;;;5.47;4.10;;;;;;;20.59;75.26;100819.13;3580861;39;20056;-65
2023/06/19 04:53:03;;;;;;;4.30;3.90;;;;;;;20.54;75.21;100810.53;3580494;39;20079;-64
2023/06/19 04:55:28;;;;;;;5.03;4.05;;;;;;;20.61;75.31;100822.56;3581575;39;20056;-65
2023/06/19 04:57:54;;;;;;;4.47;4.07;;;;;;;20.63;75.48;100827.84;3585626;39;20077;-65
2023/06/19 05:00:23;;;;;;;4.03;3.63;;;;;;;20.67;75.24;100823.78;3575284;39;20833;-66
2023/06/19 05:02:49;;;;;;;5.28;4.45;;;;;;;20.01;74.87;100713.19;3585979;39;20430;-69
2023/06/19 05:05:18;;;;;;;6.20;4.72;;;;;;;20.70;75.05;100820.72;3581319;39;20390;-66
2023/06/19 05:07:47;;;;;;;6.82;4.05;;;;;;;20.49;74.73;100773.75;3572757;40;20503;-66
2023/06/19 05:10:13;;;;;;;4.68;3.95;;;;;;;20.84;74.41;100830.22;3571290;39;20086;-66
2023/06/19 05:12:39;;;;;;;5.10;4.22;;;;;;;20.79;74.04;100817.03;3580329;39;20656;-67
2023/06/19 05:15:05;;;;;;;4.78;4.38;;;;;;;20.78;74.15;100817.19;3581291;39;20043;-65
2023/06/19 05:17:31;;;;;;;4.97;4.47;;;;;;;20.88;74.20;100828.88;3577998;40;20406;-67
2023/06/19 05:19:56;;;;;;;6.18;4.32;;;;;;;20.84;74.67;100835.69;3589677;39;20054;-66
2023/06/19 05:22:23;;;;;;;6.78;4.97;;;;;;;20.83;74.92;100848.47;3581713;39;20711;-67
2023/06/19 05:24:49;;;;;;;5.97;5.13;;;;;;;20.83;74.19;100847.59;3585438;39;20355;-66
2023/06/19 05:27:15;;;;;;;5.30;4.57;;;;;;;20.84;74.23;100843.88;3580706;39;20091;-65
2023/06/19 05:29:40;;;;;;;5.50;5.00;;;;;;;20.86;73.81;100850.00;3584095;39;20091;-65
2023/06/19 05:32:06;;;;;;;5.20;4.68;;;;;;;20.88;73.88;100844.41;3581415;39;20071;-64
2023/06/19 05:34:32;;;;;;;7.50;4.80;;;;;;;20.88;74.45;100849.88;3584025;39;20133;-65
2023/06/19 05:37:00;;;;;;;5.57;4.38;;;;;;;20.89;74.00;100846.97;3582930;39;20338;-66
2023/06/19 05:39:26;;;;;;;5.72;4.85;;;;;;;20.94;73.76;100850.09;3585498;39;20059;-66
2023/06/19 05:41:52;;;;;;;5.53;4.93;;;;;;;21.04;73.01;100856.28;3584398;39;20058;-66
2023/06/19 05:44:18;;;;;;;5.32;4.82;;;;;;;21.03;73.35;100857.31;3584615;39;20421;-66
2023/06/19 05:46:44;;;;;;;5.78;5.05;;;;;;;21.03;73.49;100864.66;3584602;39;20349;-66
2023/06/19 05:49:10;;;;;;;5.40;4.85;;;;;;;21.10;72.44;100861.09;3588053;39;20056;-66
2023/06/19 05:51:36;;;;;;;5.35;4.95;;;;;;;21.19;72.13;100856.53;3588238;39;20080;-66
2023/06/19 05:54:03;;;;;;;6.25;5.65;;;;;;;21.25;71.49;100857.75;3587824;39;20792;-65
2023/06/19 05:56:33;;;;;;;6.28;4.90;;;;;;;21.22;71.71;100858.09;3590787;39;20289;-66
2023/06/19 05:59:00;;;;;;;6.15;5.55;;;;;;;21.28;71.38;100852.81;3586994;39;20247;-66
2023/06/19 06:01:27;;;;;;;6.00;5.32;;;;;;;21.28;71.40;100851.94;3577385;40;20054;-66
2023/06/19 06:03:54;;;;;;;6.38;5.78;;;;;;;21.34;70.90;100854.03;3590745;39;20121;-67
2023/06/19 06:06:20;;;;;;;6.47;4.88;;;;;;;21.38;71.07;100858.19;3585247;39;21455;-70
2023/06/19 06:08:45;;;;;;;5.72;5.22;;;;;;;21.37;70.70;100867.41;3590367;39;20059;-70
2023/06/19 06:11:11;;;;;;;5.32;4.82;;;;;;;21.38;70.26;100852.72;3587688;39;20538;-68
2023/06/19 06:13:37;;;;;;;5.90;5.30;;;;;;;21.53;69.89;100878.44;3593699;39;20058;-69
2023/06/19 06:16:03;;;;;;;5.97;5.47;;;;;;;21.60;68.85;100885.97;3588746;39;20337;-68
2023/06/19 06:18:28;;;;;;;7.65;5.47;;;;;;;21.64;68.13;100890.09;3583990;40;20063;-70
2023/06/19 06:20:54;;;;;;;5.80;5.30;;;;;;;21.58;67.26;100886.13;3588778;39;20460;-69
2023/06/19 06:23:20;;;;;;;5.50;5.03;;;;;;;21.52;67.23;100876.72;3586675;39;20071;-68
2023/06/19 06:25:45;;;;;;;7.30;5.60;;;;;;;21.72;67.38;100903.78;3579870;39;20056;-69
2023/06/19 06:28:11;;;;;;;6.22;5.30;;;;;;;21.82;66.50;100904.53;3587137;39;20576;-69
2023/06/19 06:30:38;;;;;;;6.82;6.10;;;;;;;21.87;65.05;100901.28;3589294;39;20409;-70
2023/06/19 06:33:04;;;;;;;6.90;6.30;;;;;;;21.94;64.68;100908.66;3584707;39;20378;-69
2023/06/19 06:35:30;;;;;;;7.15;6.45;;;;;;;21.98;64.58;100899.09;3593338;39;20058;-67
2023/06/19 06:37:55;;;;;;;6.68;6.07;;;;;;;21.88;63.88;100862.78;3586119;39;20449;-69
2023/06/19 06:40:21;;;;;;;7.63;6.82;;;;;;;22.34;62.04;100925.38;3587683;39;21768;-68
2023/06/19 06:42:47;;;;;;;7.40;6.70;;;;;;;22.34;61.87;100925.38;3576195;39;20064;-69
2023/06/19 06:45:13;;;;;;;8.23;7.45;;;;;;;22.41;61.51;100935.47;3588627;39;20055;-68
2023/06/19 06:47:42;;;;;;;7.35;6.65;;;;;;;22.30;61.45;100905.69;3590500;39;20577;-69
2023/06/19 06:50:09;;;;;;;7.25;6.55;;;;;;;22.45;61.92;100920.44;3581263;39;20072;-69
2023/06/19 06:52:35;;;;;;;6.75;6.15;;;;;;;22.62;61.59;100945.09;3583061;39;20052;-69
2023/06/19 06:55:01;;;;;;;8.65;6.75;;;;;;;22.75;60.45;100944.59;3585035;39;20380;-68
2023/06/19 06:57:26;;;;;;;7.82;7.03;;;;;;;22.67;59.41;100938.06;3585604;39;20075;-69
2023/06/19 06:59:52;;;;;;;9.57;6.80;;;;;;;22.39;59.54;100890.09;3584091;39;20060;-68
2023/06/19 07:02:17;;;;;;;7.57;6.88;;;;;;;22.57;60.03;100944.75;3582168;39;20067;-68
2023/06/19 07:04:43;;;;;;;7.72;7.03;;;;;;;22.62;60.25;100950.56;3582075;39;20326;-68
2023/06/19 07:07:09;;;;;;;8.20;6.65;;;;;;;22.58;59.52;100936.38;3586083;39;20629;-68
2023/06/19 07:09:35;;;;;;;7.65;7.03;;;;;;;22.45;58.71;100909.47;3588696;39;20051;-68
2023/06/19 07:12:04;;;;;;;8.02;7.30;;;;;;;22.78;58.25;100964.28;3584478;39;20405;-70
2023/06/19 07:14:30;;;;;;;8.25;7.05;;;;;;;22.63;58.05;100933.09;3583781;39;20371;-68
2023/06/19 07:16:55;;;;;;;8.38;7.60;;;;;;;22.90;57.07;100965.66;3583233;39;20121;-68
2023/06/19 07:19:21;;;;;;;8.45;7.00;;;;;;;22.94;57.06;100968.94;3581263;39;20059;-68
2023/06/19 07:21:50;;;;;;;7.00;6.40;;;;;;;23.06;56.96;100985.91;3581830;39;20103;-69
2023/06/19 07:24:16;;;;;;;7.03;6.32;;;;;;;23.11;56.88;100984.34;3586025;39;20047;-68
2023/06/19 07:26:42;;;;;;;7.07;6.47;;;;;;;23.11;57.34;100978.84;3583545;39;20119;-69
2023/06/19 07:29:08;;;;;;;7.63;6.93;;;;;;;23.13;56.99;100982.28;3574324;39;20065;-67
2023/06/19 07:31:33;;;;;;;7.55;6.85;;;;;;;23.03;56.86;100972.53;3580648;39;20103;-68
2023/06/19 07:33:59;;;;;;;6.97;6.38;;;;;;;23.07;57.04;100982.13;3582172;39;20114;-68
2023/06/19 07:36:24;;;;;;;7.55;6.15;;;;;;;23.09;57.64;100985.53;3582586;39;20188;-69
2023/06/19 07:38:51;;;;;;;8.90;6.72;;;;;;;23.22;58.53;100985.88;3587299;39;20117;-69
2023/06/19 07:41:17;;;;;;;7.22;6.55;;;;;;;23.19;56.81;100983.50;3588929;39;20103;-70
2023/06/19 07:43:43;;;;;;;7.53;6.82;;;;;;;22.84;56.70;100927.97;3582567;39;20590;-67
2023/06/19 07:46:10;;;;;;;7.55;6.40;;;;;;;22.52;57.72;100863.06;3589470;39;20073;-68
2023/06/19 07:48:35;;;;;;;6.30;5.80;;;;;;;23.23;56.45;100984.84;3583251;39;20412;-68
2023/06/19 07:51:01;;;;;;;6.82;5.75;;;;;;;23.33;56.15;100987.41;3580799;39;20052;-69
2023/06/19 07:53:26;;;;;;;7.38;6.50;;;;;;;23.38;55.91;100990.50;3581201;39;20294;-69
2023/06/19 07:55:52;;;;;;;6.95;6.25;;;;;;;23.21;55.99;100977.81;3582419;39;20051;-69
2023/06/19 07:58:18;;;;;;;7.97;5.82;;;;;;;23.14;56.21;100942.00;3579329;39;20068;-69
2023/06/19 08:00:44;;;;;;;6.55;5.90;;;;;;;23.53;55.95;100990.59;3579487;39;20070;-67
2023/06/19 08:03:09;;;;;;;8.90;6.15;;;;;;;23.74;54.97;100985.44;3583846;39;20502;-67
2023/06/19 08:05:35;;;;;;;6.18;5.57;;;;;;;23.99;54.63;100974.34;3589182;39;20109;-67
2023/06/19 08:08:01;;;;;;;7.25;5.22;;;;;;;24.01;54.15;100975.03;3592300;39;20051;-68
2023/06/19 08:10:27;;;;;;;9.00;6.47;;;;;;;24.25;53.58;100991.38;3582505;39;20052;-68
2023/06/19 08:12:53;;;;;;;6.55;5.75;;;;;;;24.42;53.34;100983.94;3580771;39;20574;-67
2023/06/19 08:15:18;;;;;;;7.43;4.93;;;;;;;24.59;52.72;100987.41;3581251;39;20117;-67
2023/06/19 08:17:44;;;;;;;6.13;4.97;;;;;;;24.76;52.00;100993.66;3584108;39;20071;-68
2023/06/19 08:20:10;;;;;;;5.95;5.43;;;;;;;24.81;51.98;100982.13;3583149;39;20074;-68
2023/06/19 08:22:36;;;;;;;7.55;6.18;;;;;;;24.95;52.40;100990.38;3584441;39;20040;-69
2023/06/19 08:25:03;;;;;;;7.32;5.13;;;;;;;25.03;51.84;100981.22;3586936;39;20107;-69
2023/06/19 08:27:29;;;;;;;6.50;5.45;;;;;;;25.14;50.94;100977.19;3586093;39;20087;-68
2023/06/19 08:29:55;;;;;;;7.80;5.63;;;;;;;25.20;50.36;100993.81;3583987;39;20359;-68
2023/06/19 08:32:20;;;;;;;6.55;5.78;;;;;;;25.16;49.48;101000.75;3580619;39;20055;-68
2023/06/19 08:34:46;;;;;;;6.20;5.32;;;;;;;25.10;50.84;101004.19;3583337;39;20366;-68
2023/06/19 08:37:11;;;;;;;6.05;5.45;;;;;;;24.97;50.19;101001.22;3582080;39;20180;-68
2023/06/19 08:39:38;;;;;;;6.07;5.47;;;;;;;24.92;51.55;101011.91;3582296;39;20291;-68
2023/06/19 08:42:07;;;;;;;6.25;5.60;;;;;;;24.70;51.96;101011.72;3575079;39;20072;-69
2023/06/19 08:44:35;;;;;;;7.50;6.22;;;;;;;24.62;51.97;101010.94;3582786;39;20062;-69
2023/06/19 08:47:03;;;;;;;5.95;5.40;;;;;;;24.54;52.20;101014.59;3587011;39;20071;-68
2023/06/19 08:49:34;;;;;;;8.20;6.35;;;;;;;24.66;51.61;101018.63;3585097;39;20060;-68
2023/06/19 08:52:04;;;;;;;6.57;5.88;;;;;;;24.76;51.65;101018.41;3582361;39;20103;-68
2023/06/19 08:54:31;;;;;;;6.82;5.78;;;;;;;25.01;51.03;101024.56;3573416;39;20054;-68
2023/06/19 08:57:01;;;;;;;8.27;5.68;;;;;;;25.22;49.84;101033.00;3584948;39;20156;-69
2023/06/19 08:59:28;;;;;;;7.28;5.43;;;;;;;25.44;50.00;101038.66;3583986;39;20043;-69
2023/06/19 09:01:55;;;;;;;9.30;6.07;;;;;;;25.69;48.39;101047.53;3581461;39;20047;-68
2023/06/19 09:04:27;;;;;;;10.55;6.25;;;;;;;25.65;47.91;101046.19;3581112;39;20339;-68
2023/06/19 09:07:03;;;;;;;7.50;5.82;;;;;;;25.75;48.58;101045.91;3585319;39;20063;-68
2023/06/19 09:09:29;;;;;;;9.57;6.53;;;;;;;25.63;47.70;101035.38;3580099;39;20477;-68
2023/06/19 09:12:07;;;;;;;7.22;6.20;;;;;;;25.65;47.36;101047.03;3583110;39;20384;-69
2023/06/19 09:14:38;;;;;;;9.75;6.88;;;;;;;25.59;47.94;101031.25;3579456;39;20436;-67
2023/06/19 09:17:07;;;;;;;6.15;5.57;;;;;;;25.74;48.24;101041.44;3583396;39;20121;-68
2023/06/19 09:19:37;;;;;;;8.85;5.80;;;;;;;25.95;47.57;101036.06;3583928;39;20149;-68
2023/06/19 09:22:06;;;;;;;6.65;6.05;;;;;;;26.12;46.40;101064.28;3584759;39;20714;-69
2023/06/19 09:24:38;;;;;;;7.32;6.10;;;;;;;26.21;46.11;101051.25;3585856;39;20324;-69
2023/06/19 09:27:15;;;;;;;7.20;5.80;;;;;;;26.44;46.55;101063.00;3585329;39;20074;-69
2023/06/19 09:29:43;;;;;;;16.27;6.78;;;;;;;26.56;45.30;101050.44;3585192;39;20287;-68
2023/06/19 09:32:19;;;;;;;7.28;6.13;;;;;;;26.51;44.97;101063.94;3587338;39;20436;-68
2023/06/19 09:34:48;;;;;;;8.73;5.95;;;;;;;26.48;45.25;101063.44;3580439;39;20327;-69
2023/06/19 09:37:14;;;;;;;6.70;6.00;;;;;;;26.58;43.87;101048.34;3581018;39;20052;-69
2023/06/19 09:39:41;;;;;;;6.05;5.25;;;;;;;26.79;43.75;101069.56;3581926;39;20063;-69
2023/06/19 09:42:09;;;;;;;7.90;6.30;;;;;;;26.87;44.15;101068.63;3583911;39;20504;-69
2023/06/19 09:44:42;;;;;;;7.35;6.30;;;;;;;26.98;44.03;101065.31;3580915;39;20131;-68
2023/06/19 09:47:24;;;;;;;8.55;6.15;;;;;;;27.22;44.05;101077.06;3587403;39;20063;-69
2023/06/19 09:49:55;;;;;;;6.97;6.27;;;;;;;27.28;42.83;101070.75;3592900;39;20613;-68
2023/06/19 09:52:23;;;;;;;6.90;6.18;;;;;;;27.37;43.71;101069.56;3587976;39;20139;-67
2023/06/19 09:54:55;;;;;;;10.13;6.63;;;;;;;27.08;43.00;101010.69;3580652;39;20052;-68
2023/06/19 09:57:22;;;;;;;7.93;7.10;;;;;;;27.51;43.15;101071.34;3579188;39;20312;-69
2023/06/19 09:59:56;;;;;;;7.97;6.78;;;;;;;27.54;43.07;101076.47;3583508;39;20099;-67
2023/06/19 10:02:25;;;;;;;11.77;7.22;;;;;;;27.31;43.50;101078.63;3584844;39;20099;-68
2023/06/19 10:04:55;;;;;;;8.57;6.07;;;;;;;27.26;42.21;101073.69;3587109;39;20060;-67
2023/06/19 10:07:24;;;;;;;7.32;5.25;;;;;;;27.04;42.78;101047.13;3580831;39;20047;-68
2023/06/19 10:10:06;;;;;;;5.97;5.47;;;;;;;27.25;41.16;101076.66;3585773;39;20539;-68
2023/06/19 10:12:35;;;;;;;6.82;6.07;;;;;;;27.33;42.68;101081.19;3580091;39;20382;-68
2023/06/19 10:15:29;;;;;;;6.40;5.72;;;;;;;27.45;41.60;101082.34;3586754;39;20433;-69
2023/06/19 10:18:03;;;;;;;7.40;5.95;;;;;;;27.46;41.72;101081.28;3577257;39;20052;-69
2023/06/19 10:20:32;;;;;;;6.82;6.20;;;;;;;27.38;42.21;101079.53;3580586;39;20137;-68
2023/06/19 10:23:11;;;;;;;6.32;5.65;;;;;;;27.50;41.79;101083.47;3583221;39;20520;-68
2023/06/19 10:25:43;;;;;;;8.07;6.28;;;;;;;27.54;41.34;101070.97;3586003;39;20516;-69
2023/06/19 10:28:30;;;;;;;6.40;5.80;;;;;;;27.58;41.16;101081.59;3588963;39;20518;-69
2023/06/19 10:31:08;;;;;;;8.43;6.05;;;;;;;27.47;40.91;101081.09;3594570;39;20078;-68
2023/06/19 10:33:37;;;;;;;8.48;6.68;;;;;;;27.60;41.61;101090.56;3581585;39;20060;-68
2023/06/19 10:36:25;;;;;;;7.20;5.95;;;;;;;27.71;41.42;101088.06;3574325;40;20108;-68
2023/06/19 10:38:52;;;;;;;10.55;6.60;;;;;;;27.82;41.32;101092.25;3582418;39;20113;-68
2023/06/19 10:41:21;;;;;;;6.68;6.03;;;;;;;27.69;41.40;101083.81;3585344;39;20434;-67
2023/06/19 10:44:03;;;;;;;7.43;6.07;;;;;;;27.63;40.88;101087.41;3582118;39;20121;-67
2023/06/19 10:46:37;;;;;;;5.78;5.13;;;;;;;27.53;40.11;101085.84;3582862;39;20077;-67
2023/06/19 10:49:07;;;;;;;6.20;5.45;;;;;;;27.37;41.14;101086.13;3583042;39;20071;-67
2023/06/19 10:51:43;;;;;;;6.57;5.93;;;;;;;26.83;41.60;101014.88;3580454;39;20051;-67
2023/06/19 10:54:09;;;;;;;10.32;6.38;;;;;;;27.11;42.15;101077.53;3580302;39;20052;-67
2023/06/19 10:56:35;;;;;;;10.48;6.78;;;;;;;27.08;42.35;101067.75;3578930;39;20056;-68
2023/06/19 10:59:02;;;;;;;9.25;6.53;;;;;;;27.04;42.92;101067.28;3580414;39;20459;-68
2023/06/19 11:01:35;;;;;;;7.80;6.93;;;;;;;26.98;42.75;101053.44;3581722;39;20051;-68
2023/06/19 11:04:10;;;;;;;8.50;6.00;;;;;;;27.07;42.45;101060.53;3583626;39;20450;-68
2023/06/19 11:06:39;;;;;;;7.60;5.95;;;;;;;27.15;42.37;101059.56;3581166;39;20138;-68
2023/06/19 11:09:08;;;;;;;8.60;6.65;;;;;;;27.23;41.67;101067.72;3580868;39;20064;-67
2023/06/19 11:11:42;;;;;;;7.32;6.32;;;;;;;27.26;41.19;101079.22;3583226;39;20361;-68
2023/06/19 11:14:10;;;;;;;8.02;6.90;;;;;;;27.38;42.23;101059.38;3581105;39;20786;-67
2023/06/19 11:16:44;;;;;;;9.98;7.43;;;;;;;27.55;41.51;101055.25;3577439;39;20072;-68
2023/06/19 11:19:16;;;;;;;11.15;6.43;;;;;;;27.76;42.02;101035.00;3579933;39;20441;-67
2023/06/19 11:21:48;;;;;;;7.67;6.20;;;;;;;28.27;40.22;101065.06;3584213;39;20070;-68
2023/06/19 11:24:15;;;;;;;7.53;6.25;;;;;;;28.29;39.15;101017.84;3585175;39;20072;-68
2023/06/19 11:26:49;;;;;;;6.35;5.75;;;;;;;28.85;37.63;101057.19;3587573;39;20063;-68
2023/06/19 11:29:24;;;;;;;7.28;6.40;;;;;;;29.15;37.04;101062.41;3588094;39;20060;-68